Time;durP1;ratioP1;P1;durP2;ratioP2;P2;SDS_P1;SDS_P2;PMS_P1;PMS_P2;Temp;Humidity;BMP_temperature;BMP_pressure;BME280_temperature;BME280_humidity;BME280_pressure;Samples;Min_cycle;Max_cycle;Signal;HPM_P1;HPM_P2
2024/03/23 00:01:26;;;;;;;27.67;6.65;;;9.60;99.90;;;;;;5035331;28;20586;-87
2024/03/23 00:03:52;;;;;;;24.27;7.38;;;9.50;99.90;;;;;;5053038;28;20680;-87
2024/03/23 00:06:19;;;;;;;25.83;7.65;;;9.60;99.90;;;;;;5051788;28;20185;-87
2024/03/23 00:08:46;;;;;;;24.33;6.57;;;9.50;99.90;;;;;;5051565;28;20542;-87
2024/03/23 00:11:12;;;;;;;26.42;7.85;;;9.50;99.90;;;;;;5051496;28;20241;-87
2024/03/23 00:13:41;;;;;;;22.80;7.65;;;9.50;99.90;;;;;;5052758;28;20177;-87
2024/03/23 00:16:08;;;;;;;22.48;6.72;;;9.50;99.90;;;;;;5035129;28;20693;-87
2024/03/23 00:18:35;;;;;;;19.80;5.88;;;9.50;99.90;;;;;;5052980;28;20645;-87
2024/03/23 00:21:02;;;;;;;22.70;6.20;;;9.50;99.90;;;;;;5035071;28;20202;-87
2024/03/23 00:23:28;;;;;;;28.15;6.38;;;9.50;99.90;;;;;;5051632;28;20177;-87
2024/03/23 00:25:55;;;;;;;24.92;7.10;;;9.50;99.90;;;;;;5054624;28;20165;-87
2024/03/23 00:28:21;;;;;;;25.60;6.10;;;9.40;99.90;;;;;;5038942;28;20546;-87
2024/03/23 00:30:48;;;;;;;24.15;6.05;;;9.30;99.90;;;;;;5056264;28;20672;-87
2024/03/23 00:33:14;;;;;;;27.33;6.95;;;9.30;99.90;;;;;;5056650;28;20180;-87
2024/03/23 00:35:41;;;;;;;23.85;5.65;;;9.40;99.90;;;;;;5055315;28;20177;-87
2024/03/23 00:38:08;;;;;;;31.10;7.25;;;9.30;99.90;;;;;;5038630;28;20201;-87
2024/03/23 00:40:35;;;;;;;30.02;7.70;;;9.30;99.90;;;;;;5056244;28;20162;-87
2024/03/23 00:43:02;;;;;;;27.77;9.15;;;9.20;99.90;;;;;;5055513;28;20173;-87
2024/03/23 00:45:29;;;;;;;25.65;7.55;;;9.20;99.90;;;;;;5056152;28;20162;-87
2024/03/23 00:47:55;;;;;;;25.60;7.50;;;9.30;99.90;;;;;;5055247;28;20172;-87
2024/03/23 00:50:22;;;;;;;21.75;6.68;;;9.30;99.90;;;;;;5056591;28;20157;-87
2024/03/23 00:52:47;;;;;;;24.33;6.78;;;9.40;99.90;;;;;;5055067;28;20212;-87
2024/03/23 00:55:14;;;;;;;31.63;7.73;;;9.30;99.90;;;;;;5056212;28;20171;-87
2024/03/23 00:57:39;;;;;;;25.70;6.53;;;9.20;99.90;;;;;;5055522;28;20196;-87
2024/03/23 01:00:06;;;;;;;31.03;7.40;;;9.20;99.90;;;;;;5055845;28;20654;-87
2024/03/23 01:02:32;;;;;;;24.25;6.20;;;9.30;99.90;;;;;;5055958;28;20185;-87
2024/03/23 01:05:01;;;;;;;24.83;7.65;;;9.30;99.90;;;;;;5054600;28;20173;-87
2024/03/23 01:07:26;;;;;;;26.55;7.43;;;9.20;99.90;;;;;;5056049;28;20248;-87
2024/03/23 01:09:53;;;;;;;27.50;6.93;;;9.10;99.90;;;;;;5055747;28;20189;-87
2024/03/23 01:12:18;;;;;;;25.60;6.97;;;9.20;99.90;;;;;;5054446;28;20204;-87
2024/03/23 01:14:44;;;;;;;29.67;9.13;;;9.20;99.90;;;;;;5055674;28;20650;-87
2024/03/23 01:17:10;;;;;;;27.93;9.40;;;9.30;99.90;;;;;;5055718;28;20588;-87
2024/03/23 01:19:36;;;;;;;23.57;7.47;;;9.20;99.90;;;;;;5056150;28;20158;-87
2024/03/23 01:22:01;;;;;;;23.57;7.50;;;9.20;99.90;;;;;;5055677;28;20192;-87
2024/03/23 01:24:27;;;;;;;21.60;5.33;;;9.10;99.90;;;;;;5056378;28;20164;-87
2024/03/23 01:26:53;;;;;;;18.80;4.27;;;9.00;99.90;;;;;;5055903;28;20243;-87
2024/03/23 01:29:18;;;;;;;19.80;3.97;;;8.90;99.90;;;;;;5054685;28;20700;-87
2024/03/23 01:31:44;;;;;;;15.73;3.53;;;8.70;99.90;;;;;;5055863;28;20557;-87
2024/03/23 01:34:09;;;;;;;18.60;3.13;;;8.50;99.90;;;;;;5055503;28;20589;-87
2024/03/23 01:36:35;;;;;;;19.37;4.30;;;8.60;99.90;;;;;;5054037;28;20247;-87
2024/03/23 01:39:01;;;;;;;17.43;3.87;;;8.60;99.90;;;;;;5055771;28;20530;-87
2024/03/23 01:41:26;;;;;;;16.13;3.50;;;8.50;99.90;;;;;;5054349;28;20597;-87
2024/03/23 01:43:54;;;;;;;18.13;4.47;;;8.60;99.90;;;;;;5055729;28;20162;-87
2024/03/23 01:46:20;;;;;;;17.77;4.60;;;8.60;99.90;;;;;;5055592;28;20172;-87
2024/03/23 01:48:46;;;;;;;20.50;5.75;;;8.60;99.90;;;;;;5055456;28;20165;-87
2024/03/23 01:51:13;;;;;;;24.30;6.87;;;8.60;99.90;;;;;;5054155;28;20318;-87
2024/03/23 01:53:39;;;;;;;22.02;7.97;;;8.60;99.90;;;;;;5055472;28;20718;-87
2024/03/23 01:56:05;;;;;;;25.60;5.97;;;8.50;99.90;;;;;;5055801;28;20240;-87
2024/03/23 01:58:31;;;;;;;22.05;6.55;;;8.40;99.90;;;;;;5055291;28;20653;-87
2024/03/23 02:00:58;;;;;;;26.27;7.40;;;8.40;99.90;;;;;;5055209;28;20205;-87
2024/03/23 02:03:27;;;;;;;21.55;7.45;;;8.30;99.90;;;;;;5053639;28;20263;-87
2024/03/23 02:05:54;;;;;;;18.30;5.45;;;8.30;99.90;;;;;;5054942;28;20172;-87
2024/03/23 02:08:22;;;;;;;20.38;5.88;;;8.30;99.90;;;;;;5054855;28;20177;-87
2024/03/23 02:10:49;;;;;;;22.73;5.75;;;8.20;99.90;;;;;;5054724;28;20177;-87
2024/03/23 02:13:16;;;;;;;21.30;5.88;;;8.30;99.90;;;;;;5053652;28;20173;-87
2024/03/23 02:15:41;;;;;;;22.73;6.20;;;8.30;99.90;;;;;;5053299;28;20173;-87
2024/03/23 02:18:08;;;;;;;24.50;6.00;;;8.20;99.90;;;;;;5053174;28;20193;-87
2024/03/23 02:20:37;;;;;;;29.00;5.88;;;8.20;99.90;;;;;;5054425;28;20406;-87
2024/03/23 02:23:06;;;;;;;21.55;4.90;;;8.30;99.90;;;;;;5053347;28;20200;-87
2024/03/23 02:25:32;;;;;;;20.27;4.75;;;8.20;99.90;;;;;;5054276;28;20161;-87
2024/03/23 02:27:58;;;;;;;16.20;3.20;;;8.20;99.90;;;;;;5053021;28;20256;-86
2024/03/23 02:30:25;;;;;;;18.50;2.92;;;8.10;99.90;;;;;;5054356;28;20176;-86
2024/03/23 02:32:51;;;;;;;18.67;2.10;;;7.80;99.90;;;;;;5055008;28;20168;-86
2024/03/23 02:35:17;;;;;;;18.98;1.30;;;7.50;99.90;;;;;;5053087;28;20234;-86
2024/03/23 02:37:42;;;;;;;13.67;1.57;;;7.40;99.90;;;;;;5053216;28;20189;-86
2024/03/23 02:40:08;;;;;;;14.30;1.70;;;7.20;99.90;;;;;;5054095;28;20528;-87
2024/03/23 02:42:34;;;;;;;13.82;1.70;;;7.30;99.90;;;;;;5053035;28;20305;-86
2024/03/23 02:45:00;;;;;;;13.37;1.20;;;7.30;99.90;;;;;;5054003;28;20188;-87
2024/03/23 02:47:25;;;;;;;15.47;2.10;;;7.30;99.90;;;;;;5052239;28;20699;-87
2024/03/23 02:49:51;;;;;;;15.50;2.73;;;7.20;99.90;;;;;;5053086;28;20246;-87
2024/03/23 02:52:17;;;;;;;13.90;1.60;;;7.20;99.90;;;;;;5053953;28;20280;-86
2024/03/23 02:54:44;;;;;;;16.70;1.40;;;7.30;99.90;;;;;;5052837;28;20177;-86
2024/03/23 02:57:10;;;;;;;15.93;1.45;;;7.20;99.90;;;;;;5053999;28;20268;-87
2024/03/23 02:59:36;;;;;;;21.83;1.83;;;7.20;99.90;;;;;;5052687;28;20231;-87
2024/03/23 03:02:04;;;;;;;15.77;2.40;;;7.20;99.90;;;;;;5052338;28;20205;-87
2024/03/23 03:04:30;;;;;;;17.70;2.00;;;7.30;99.90;;;;;;5053836;28;20161;-86
2024/03/23 03:06:55;;;;;;;19.17;2.30;;;7.40;99.90;;;;;;5053998;28;20172;-87
2024/03/23 03:09:21;;;;;;;15.73;1.43;;;7.20;99.90;;;;;;5053846;28;20400;-86
2024/03/23 03:11:47;;;;;;;16.73;1.43;;;7.20;99.90;;;;;;5053729;28;20185;-86
2024/03/23 03:14:13;;;;;;;18.10;1.80;;;7.20;99.90;;;;;;5052204;28;20173;-86
2024/03/23 03:16:39;;;;;;;17.93;2.20;;;7.30;99.90;;;;;;5053355;28;20185;-87
2024/03/23 03:19:04;;;;;;;17.90;2.57;;;7.40;99.90;;;;;;5054097;28;20408;-86
2024/03/23 03:21:30;;;;;;;17.00;1.40;;;7.40;99.90;;;;;;5053362;28;20496;-86
2024/03/23 03:23:56;;;;;;;13.07;1.60;;;7.20;99.90;;;;;;5052108;28;20562;-87
2024/03/23 03:26:22;;;;;;;24.65;1.98;;;7.20;99.90;;;;;;5053553;28;20212;-87
2024/03/23 03:28:48;;;;;;;16.60;2.13;;;7.20;99.90;;;;;;5051960;28;20176;-87
2024/03/23 03:31:16;;;;;;;14.23;1.60;;;7.10;99.90;;;;;;5052015;28;20191;-86
2024/03/23 03:33:42;;;;;;;13.30;1.60;;;7.20;99.90;;;;;;5053262;28;20184;-87
2024/03/23 03:36:08;;;;;;;13.10;1.60;;;7.30;99.90;;;;;;5053248;28;20161;-86
2024/03/23 03:38:38;;;;;;;13.95;1.45;;;7.40;99.90;;;;;;5053800;28;20457;-87
2024/03/23 03:41:06;;;;;;;17.42;2.15;;;7.40;99.90;;;;;;5054068;28;20554;-87
2024/03/23 03:43:31;;;;;;;20.27;1.55;;;7.40;99.90;;;;;;5052866;28;20165;-87
2024/03/23 03:45:59;;;;;;;25.90;2.20;;;7.40;99.90;;;;;;5053158;28;20174;-87
2024/03/23 03:48:25;;;;;;;15.02;2.00;;;7.40;99.90;;;;;;5052690;28;20165;-86
2024/03/23 03:50:51;;;;;;;20.90;1.97;;;7.30;99.90;;;;;;5054392;28;20264;-87
2024/03/23 03:53:17;;;;;;;14.60;1.50;;;7.40;99.90;;;;;;5053077;28;20407;-87
2024/03/23 03:55:42;;;;;;;21.03;3.37;;;7.50;99.90;;;;;;5054635;28;20310;-87
2024/03/23 03:58:08;;;;;;;13.23;1.27;;;7.50;99.90;;;;;;5053477;28;20224;-87
2024/03/23 04:00:35;;;;;;;14.47;2.20;;;7.50;99.90;;;;;;5058089;28;20176;-87
2024/03/23 04:03:01;;;;;;;17.17;2.08;;;7.50;99.90;;;;;;5056761;28;20478;-87
2024/03/23 04:05:27;;;;;;;14.40;1.87;;;7.50;99.90;;;;;;5056760;28;20246;-87
2024/03/23 04:07:52;;;;;;;17.23;1.60;;;7.50;99.90;;;;;;5056861;28;20172;-87
2024/03/23 04:10:18;;;;;;;14.53;1.20;;;7.50;99.90;;;;;;5056791;28;21009;-87
2024/03/23 04:12:45;;;;;;;13.57;1.67;;;7.50;99.90;;;;;;5056508;28;20442;-87
2024/03/23 04:15:10;;;;;;;19.42;1.90;;;7.50;99.90;;;;;;5056570;28;20180;-87
2024/03/23 04:17:36;;;;;;;18.90;2.80;;;7.50;99.90;;;;;;5058702;28;20189;-87
2024/03/23 04:20:10;;;;;;;16.15;1.60;;;7.50;99.90;;;;;;5056802;28;20173;-87
2024/03/23 04:22:36;;;;;;;15.25;1.30;;;7.40;99.90;;;;;;5058090;28;20180;-87
2024/03/23 04:25:06;;;;;;;16.63;1.63;;;7.50;99.90;;;;;;5056526;28;20165;-87
2024/03/23 04:27:35;;;;;;;18.08;2.10;;;7.60;99.90;;;;;;5057362;28;20168;-87
2024/03/23 04:30:01;;;;;;;16.23;2.60;;;7.60;99.90;;;;;;5057511;28;20165;-87
2024/03/23 04:32:27;;;;;;;13.65;1.50;;;7.60;99.90;;;;;;5057843;28;20192;-87
2024/03/23 04:34:54;;;;;;;17.23;1.73;;;7.60;99.90;;;;;;5056770;28;20272;-87
2024/03/23 04:37:20;;;;;;;17.35;2.90;;;7.70;99.90;;;;;;5057734;28;20454;-87
2024/03/23 04:39:49;;;;;;;14.45;2.00;;;7.60;99.90;;;;;;5057706;28;20163;-86
2024/03/23 04:42:16;;;;;;;18.52;2.20;;;7.50;99.90;;;;;;5057172;28;20656;-87
2024/03/23 04:44:42;;;;;;;16.95;2.00;;;7.60;99.90;;;;;;5055856;28;20165;-87
2024/03/23 04:47:07;;;;;;;15.37;2.20;;;7.60;99.90;;;;;;5057835;28;20515;-87
2024/03/23 04:49:33;;;;;;;16.30;2.33;;;7.60;99.90;;;;;;5058164;28;20410;-87
2024/03/23 04:51:59;;;;;;;15.57;1.63;;;7.60;99.90;;;;;;5058496;28;20193;-87
2024/03/23 04:54:24;;;;;;;16.13;2.00;;;7.50;99.90;;;;;;5057421;28;20175;-87
2024/03/23 04:56:50;;;;;;;13.47;1.73;;;7.50;99.90;;;;;;5058138;28;20188;-87
2024/03/23 04:59:16;;;;;;;13.00;1.50;;;7.50;99.90;;;;;;5058913;28;20162;-87
2024/03/23 05:01:42;;;;;;;19.43;2.07;;;7.50;99.90;;;;;;5056113;28;20435;-87
2024/03/23 05:04:11;;;;;;;15.15;1.95;;;7.40;99.90;;;;;;5056664;28;20157;-87
2024/03/23 05:06:36;;;;;;;13.20;1.60;;;7.40;99.90;;;;;;5055818;28;20223;-87
2024/03/23 05:09:11;;;;;;;18.93;2.07;;;7.50;99.90;;;;;;5054511;28;20612;-87
2024/03/23 05:11:40;;;;;;;15.90;2.05;;;7.50;99.90;;;;;;5055100;28;20600;-87
2024/03/23 05:14:06;;;;;;;14.57;1.67;;;7.40;99.90;;;;;;5054554;28;20208;-87
2024/03/23 05:16:32;;;;;;;16.10;1.92;;;7.40;99.90;;;;;;5054953;28;20193;-86
2024/03/23 05:18:57;;;;;;;19.60;1.97;;;7.50;99.90;;;;;;5054984;28;20165;-87
2024/03/23 05:21:23;;;;;;;16.67;1.87;;;7.40;99.90;;;;;;5054876;28;20674;-87
2024/03/23 05:23:48;;;;;;;18.30;2.27;;;7.30;99.90;;;;;;5055642;28;20553;-87
2024/03/23 05:26:17;;;;;;;15.10;1.53;;;7.30;99.90;;;;;;5055439;28;20188;-87
2024/03/23 05:28:43;;;;;;;15.73;1.60;;;7.30;99.90;;;;;;5054650;28;20169;-87
2024/03/23 05:31:09;;;;;;;15.88;1.88;;;7.40;99.90;;;;;;5056012;28;20185;-87
2024/03/23 05:33:37;;;;;;;15.63;1.83;;;7.40;99.90;;;;;;5056034;28;20214;-87
2024/03/23 05:36:04;;;;;;;14.95;1.55;;;7.40;99.90;;;;;;5055721;28;20188;-87
2024/03/23 05:38:30;;;;;;;13.15;1.80;;;7.30;99.90;;;;;;5055146;28;20283;-87
2024/03/23 05:40:56;;;;;;;21.70;2.25;;;7.30;99.90;;;;;;5056087;28;20181;-87
2024/03/23 05:43:22;;;;;;;14.40;1.75;;;7.20;99.90;;;;;;5054517;28;20161;-87
2024/03/23 05:45:58;;;;;;;14.90;1.50;;;7.40;99.90;;;;;;5055695;28;20167;-88
2024/03/23 05:48:27;;;;;;;17.27;2.47;;;7.40;99.90;;;;;;5055981;28;20489;-87
2024/03/23 05:50:53;;;;;;;16.80;1.98;;;7.50;99.90;;;;;;5053824;28;20693;-87
2024/03/23 05:53:22;;;;;;;14.80;2.20;;;7.50;99.90;;;;;;5054934;28;20184;-87
2024/03/23 05:55:48;;;;;;;14.65;1.52;;;7.50;99.90;;;;;;5053645;28;20651;-87
2024/03/23 05:58:20;;;;;;;19.05;2.03;;;7.50;99.90;;;;;;5053922;28;20673;-87
2024/03/23 06:00:47;;;;;;;14.70;2.10;;;7.40;99.90;;;;;;5053230;28;20209;-87
2024/03/23 06:03:12;;;;;;;15.70;1.95;;;7.30;99.90;;;;;;5054747;28;20166;-87
2024/03/23 06:05:38;;;;;;;18.27;3.10;;;7.30;99.90;;;;;;5053758;28;20161;-86
2024/03/23 06:08:04;;;;;;;17.90;1.73;;;7.40;99.90;;;;;;5055088;28;20185;-86
2024/03/23 06:10:31;;;;;;;15.50;2.00;;;7.30;99.90;;;;;;5054053;28;20808;-86
2024/03/23 06:12:58;;;;;;;15.80;2.30;;;7.30;99.90;;;;;;5053590;28;20223;-86
2024/03/23 06:15:24;;;;;;;14.70;2.30;;;7.20;99.90;;;;;;5053634;28;20200;-87
2024/03/23 06:17:50;;;;;;;23.17;3.43;;;7.20;99.90;;;;;;5054467;28;20708;-86
2024/03/23 06:20:16;;;;;;;20.20;3.23;;;7.20;99.90;;;;;;5053747;28;20430;-87
2024/03/23 06:22:42;;;;;;;16.85;2.20;;;7.10;99.90;;;;;;5053675;28;20185;-85
2024/03/23 06:25:08;;;;;;;19.43;2.17;;;7.10;99.90;;;;;;5053826;28;20165;-86
2024/03/23 06:27:33;;;;;;;16.15;2.00;;;7.20;99.90;;;;;;5054304;28;20211;-87
2024/03/23 06:30:00;;;;;;;24.63;2.93;;;7.20;99.90;;;;;;5054978;28;20204;-87
2024/03/23 06:32:26;;;;;;;23.20;2.58;;;7.20;99.90;;;;;;5055212;28;20185;-86
2024/03/23 06:34:51;;;;;;;18.10;2.13;;;7.10;99.90;;;;;;5055862;28;20535;-87
2024/03/23 06:37:17;;;;;;;18.33;2.50;;;7.10;99.90;;;;;;5054696;28;20185;-87
2024/03/23 06:39:43;;;;;;;21.67;3.27;;;7.10;99.90;;;;;;5056980;28;20164;-87
2024/03/23 06:42:08;;;;;;;23.40;3.03;;;7.20;99.90;;;;;;5057130;28;20719;-87
2024/03/23 06:44:34;;;;;;;16.17;2.40;;;7.20;99.90;;;;;;5057104;28;20406;-87
2024/03/23 06:47:00;;;;;;;16.63;2.70;;;7.20;99.90;;;;;;5055346;28;20233;-87
2024/03/23 06:49:26;;;;;;;19.67;2.30;;;7.20;99.90;;;;;;5055057;28;20256;-87
2024/03/23 06:51:52;;;;;;;20.30;2.07;;;7.20;99.90;;;;;;5057182;28;20185;-87
2024/03/23 06:54:19;;;;;;;23.83;3.10;;;7.20;99.90;;;;;;5054960;28;20176;-87
2024/03/23 06:56:44;;;;;;;17.88;2.90;;;7.20;99.90;;;;;;5055440;28;20192;-86
2024/03/23 06:59:10;;;;;;;17.50;2.50;;;7.20;99.90;;;;;;5056327;28;20658;-86
2024/03/23 07:01:36;;;;;;;17.17;2.70;;;7.20;99.90;;;;;;5055120;28;20562;-86
2024/03/23 07:04:03;;;;;;;20.58;2.92;;;7.30;99.90;;;;;;5055716;28;20642;-86
2024/03/23 07:06:32;;;;;;;19.33;2.97;;;7.30;99.90;;;;;;5055484;28;20165;-87
2024/03/23 07:08:57;;;;;;;17.80;2.50;;;7.40;99.90;;;;;;5055679;28;20171;-86
2024/03/23 07:11:24;;;;;;;15.03;2.70;;;7.40;99.90;;;;;;5054535;28;20197;-86
2024/03/23 07:13:51;;;;;;;22.80;2.95;;;7.40;99.90;;;;;;5053671;28;20403;-87
2024/03/23 07:16:19;;;;;;;18.73;3.15;;;7.40;99.90;;;;;;5054370;28;20162;-86
2024/03/23 07:18:45;;;;;;;23.30;3.63;;;7.40;99.90;;;;;;5055586;28;20561;-86
2024/03/23 07:21:11;;;;;;;20.90;4.37;;;7.40;99.90;;;;;;5055255;28;20193;-85
2024/03/23 07:23:37;;;;;;;16.23;3.50;;;7.50;99.90;;;;;;5053565;28;20185;-87
2024/03/23 07:26:04;;;;;;;21.85;4.22;;;7.50;99.90;;;;;;5054740;28;20669;-86
2024/03/23 07:28:34;;;;;;;19.23;4.03;;;7.50;99.90;;;;;;5053766;28;20172;-87
2024/03/23 07:31:10;;;;;;;19.67;2.92;;;7.50;99.90;;;;;;5054616;28;20238;-86
2024/03/23 07:33:48;;;;;;;26.35;4.53;;;7.60;99.90;;;;;;5054121;28;20161;-86
2024/03/23 07:36:14;;;;;;;19.98;4.05;;;7.60;99.90;;;;;;5053971;28;20153;-87
2024/03/23 07:38:46;;;;;;;17.43;4.13;;;7.70;99.90;;;;;;5053963;28;20190;-86
2024/03/23 07:41:19;;;;;;;21.52;4.88;;;7.70;99.90;;;;;;5054476;28;20693;-86
2024/03/23 07:43:46;;;;;;;23.88;4.60;;;7.80;99.90;;;;;;5054134;28;20153;-87
2024/03/23 07:46:12;;;;;;;22.35;4.78;;;7.80;99.90;;;;;;5053845;28;20157;-87
2024/03/23 07:48:39;;;;;;;28.15;4.57;;;8.00;99.90;;;;;;5053027;28;20158;-86
2024/03/23 07:51:20;;;;;;;30.27;5.65;;;8.10;99.90;;;;;;5054016;28;20260;-86
2024/03/23 07:53:47;;;;;;;22.15;5.93;;;8.20;99.90;;;;;;5052147;28;20156;-87
2024/03/23 07:56:15;;;;;;;30.08;6.38;;;8.20;99.90;;;;;;5051512;28;20173;-86
2024/03/23 07:58:41;;;;;;;21.98;5.15;;;8.30;99.90;;;;;;5052884;28;20161;-87
2024/03/23 08:01:14;;;;;;;20.90;5.20;;;8.30;99.90;;;;;;5053682;28;20747;-86
2024/03/23 08:03:41;;;;;;;27.15;4.40;;;8.30;99.90;;;;;;5052555;28;20241;-86
2024/03/23 08:06:24;;;;;;;19.15;3.63;;;8.30;99.90;;;;;;5053943;28;20658;-86
2024/03/23 08:09:02;;;;;;;20.15;3.30;;;8.30;99.90;;;;;;5052020;28;20161;-85
2024/03/23 08:11:29;;;;;;;17.30;2.40;;;8.30;99.90;;;;;;5053062;28;20212;-85
2024/03/23 08:13:55;;;;;;;24.33;2.40;;;8.20;99.90;;;;;;5053958;28;20180;-85
2024/03/23 08:16:21;;;;;;;14.53;2.00;;;8.20;99.90;;;;;;5052446;28;20161;-85
2024/03/23 08:18:47;;;;;;;13.63;1.80;;;8.10;91.00;;;;;;5054262;28;20399;-85
2024/03/23 08:21:12;;;;;;;15.13;2.10;;;8.20;92.40;;;;;;5053413;28;20220;-85
2024/03/23 08:23:39;;;;;;;13.93;1.90;;;8.20;82.40;;;;;;5054965;28;20169;-86
2024/03/23 08:26:06;;;;;;;18.25;2.25;;;8.20;77.00;;;;;;5053025;28;20642;-86
2024/03/23 08:28:32;;;;;;;13.68;2.00;;;8.20;83.10;;;;;;5055885;28;20199;-85
2024/03/23 08:31:02;;;;;;;14.00;2.60;;;8.10;74.00;;;;;;5036480;28;20578;-85
2024/03/23 08:33:28;;;;;;;14.20;2.20;;;8.20;62.80;;;;;;5055231;28;20192;-86
2024/03/23 08:35:59;;;;;;;22.70;3.23;;;8.10;59.60;;;;;;5053881;28;20170;-87
2024/03/23 08:38:26;;;;;;;21.65;3.60;;;8.10;50.80;;;;;;5057040;28;20246;-85
2024/03/23 08:41:09;;;;;;;16.60;3.45;;;8.10;50.70;;;;;;5054552;28;20189;-86
2024/03/23 08:43:39;;;;;;;20.05;3.95;;;8.20;58.40;;;;;;5054443;28;20157;-86
2024/03/23 08:46:09;;;;;;;20.08;4.50;;;8.20;72.10;;;;;;5061391;28;20162;-86
2024/03/23 08:48:43;;;;;;;17.10;5.30;;;8.30;85.70;;;;;;5058998;28;20252;-86
2024/03/23 08:51:10;;;;;;;25.35;5.57;;;8.40;84.60;;;;;;5058435;28;20193;-86
2024/03/23 08:53:36;;;;;;;18.40;5.78;;;8.50;89.10;;;;;;5058518;28;20211;-85
2024/03/23 08:56:03;;;;;;;22.80;5.05;;;8.60;80.70;;;;;;5057360;28;20177;-86
2024/03/23 08:58:30;;;;;;;20.20;5.35;;;8.60;74.00;;;;;;5058032;28;20185;-86
2024/03/23 09:01:02;;;;;;;16.33;4.38;;;8.80;74.90;;;;;;5057240;28;20208;-85
2024/03/23 09:03:31;;;;;;;16.52;4.32;;;8.90;73.10;;;;;;5058469;28;20163;-86
2024/03/23 09:05:58;;;;;;;21.15;4.65;;;9.00;62.60;;;;;;5058789;28;20256;-86
2024/03/23 09:08:24;;;;;;;18.85;5.20;;;9.20;76.30;;;;;;5060328;28;20173;-86
2024/03/23 09:10:53;;;;;;;25.40;5.83;;;9.40;74.60;;;;;;5058149;28;20554;-86
2024/03/23 09:13:19;;;;;;;21.38;5.05;;;9.50;59.70;;;;;;5059563;28;20404;-85
2024/03/23 09:15:56;;;;;;;17.08;3.70;;;9.60;56.30;;;;;;5061723;28;20169;-86
2024/03/23 09:18:22;;;;;;;27.13;3.78;;;9.60;34.30;;;;;;5061423;28;20238;-86
2024/03/23 09:20:50;;;;;;;22.40;3.60;;;9.60;24.40;;;;;;5060532;28;20674;-86
2024/03/23 09:23:16;;;;;;;19.25;5.47;;;9.50;8.90;;;;;;5060831;28;20404;-86
2024/03/23 09:25:41;;;;;;;18.23;4.03;;;9.40;3.30;;;;;;5060658;28;20166;-86
2024/03/23 09:28:11;;;;;;;16.67;4.00;;;9.30;8.90;;;;;;5060531;28;20248;-86
2024/03/23 09:30:42;;;;;;;18.73;3.17;;;9.30;5.10;;;;;;5059639;28;20268;-86
2024/03/23 09:33:10;;;;;;;19.40;3.88;;;9.20;15.50;;;;;;5061694;28;20177;-86
2024/03/23 09:35:40;;;;;;;19.25;4.40;;;9.20;16.20;;;;;;5060973;28;20243;-86
2024/03/23 09:38:09;;;;;;;22.50;3.63;;;9.20;19.70;;;;;;5060321;28;20654;-86
2024/03/23 09:40:42;;;;;;;25.45;4.45;;;9.20;29.50;;;;;;5060870;28;20161;-86
2024/03/23 09:43:08;;;;;;;18.17;3.03;;;9.20;31.20;;;;;;5061302;28;20153;-86
2024/03/23 09:45:40;;;;;;;17.88;3.58;;;9.20;23.30;;;;;;5059869;28;20161;-86
2024/03/23 09:48:08;;;;;;;22.90;4.03;;;9.30;9.30;;;;;;5060501;28;20151;-86
2024/03/23 09:50:35;;;;;;;20.33;3.38;;;9.40;6.20;;;;;;5060714;28;20166;-86
2024/03/23 09:53:01;;;;;;;19.48;3.42;;;9.50;1.00;;;;;;5058803;28;20172;-86
2024/03/23 09:55:27;;;;;;;20.03;4.10;;;9.60;1.00;;;;;;5061151;28;20165;-86
2024/03/23 09:57:52;;;;;;;15.53;1.93;;;9.70;1.00;;;;;;5060392;28;20227;-86
2024/03/23 10:00:18;;;;;;;14.57;1.90;;;9.80;1.00;;;;;;5061019;28;20754;-86
2024/03/23 10:02:45;;;;;;;15.17;2.40;;;9.80;1.00;;;;;;5060263;28;20239;-86
2024/03/23 10:05:23;;;;;;;15.35;2.38;;;9.80;1.00;;;;;;5060698;28;20453;-86
2024/03/23 10:07:52;;;;;;;15.45;1.92;;;10.00;1.00;;;;;;5061152;28;20657;-86
2024/03/23 10:10:19;;;;;;;15.43;2.10;;;10.20;1.00;;;;;;5060066;28;20169;-86
2024/03/23 10:12:50;;;;;;;17.40;2.67;;;10.30;1.00;;;;;;5060697;28;20212;-85
2024/03/23 10:15:25;;;;;;;16.70;3.10;;;10.40;1.00;;;;;;5060529;28;20200;-86
2024/03/23 10:17:51;;;;;;;16.65;2.20;;;10.60;1.00;;;;;;5060316;28;20199;-86
2024/03/23 10:20:23;;;;;;;15.95;2.25;;;10.70;1.00;;;;;;5058507;28;20504;-86
2024/03/23 10:22:51;;;;;;;15.15;1.75;;;10.60;1.00;;;;;;5059847;28;20231;-86
2024/03/23 10:25:17;;;;;;;20.45;2.67;;;10.30;1.00;;;;;;5057200;28;20508;-86
2024/03/23 10:27:43;;;;;;;18.08;2.65;;;10.20;1.00;;;;;;5059468;28;20204;-86
2024/03/23 10:30:12;;;;;;;14.07;2.15;;;9.90;1.00;;;;;;5057749;28;20170;-86
2024/03/23 10:32:38;;;;;;;13.20;1.40;;;9.60;1.00;;;;;;5056823;28;20666;-86
2024/03/23 10:35:26;;;;;;;15.25;1.60;;;9.20;1.00;;;;;;5053704;28;20216;-86
2024/03/23 10:37:53;;;;;;;14.32;1.50;;;8.90;1.00;;;;;;5055124;28;20177;-88
2024/03/23 10:40:19;;;;;;;13.23;1.48;;;8.60;1.00;;;;;;5053447;28;20177;-87
2024/03/23 10:42:45;;;;;;;15.73;1.43;;;8.40;1.00;;;;;;5054480;28;20185;-87
2024/03/23 10:45:11;;;;;;;21.90;2.80;;;8.30;1.00;;;;;;5056465;28;20193;-88
2024/03/23 10:47:37;;;;;;;17.00;2.17;;;8.30;19.90;;;;;;5053327;28;20231;-88
2024/03/23 10:50:07;;;;;;;13.30;1.60;;;8.40;46.20;;;;;;5052909;28;20447;-88
2024/03/23 10:52:33;;;;;;;17.23;1.80;;;8.60;58.10;;;;;;5053559;28;20742;-87
2024/03/23 10:55:01;;;;;;;13.43;1.45;;;8.80;56.30;;;;;;5053852;28;20543;-87
2024/03/23 10:57:51;;;;;;;13.00;1.33;;;9.10;70.80;;;;;;5054743;28;20189;-86
2024/03/23 11:00:17;;;;;;;14.45;1.80;;;9.60;78.40;;;;;;5052422;28;20157;-87
2024/03/23 11:02:43;;;;;;;15.33;1.80;;;9.90;46.90;;;;;;5053903;28;20212;-86
2024/03/23 11:05:38;;;;;;;16.13;1.85;;;9.80;37.70;;;;;;5052474;28;20491;-86
2024/03/23 11:08:04;;;;;;;13.15;1.25;;;9.80;4.10;;;;;;5052336;28;20185;-87
2024/03/23 11:10:35;;;;;;;16.00;1.77;;;10.00;22.20;;;;;;5052089;28;20267;-87
2024/03/23 11:13:23;;;;;;;13.38;1.63;;;10.30;28.00;;;;;;5052011;28;20473;-87
2024/03/23 11:15:49;;;;;;;16.67;1.75;;;10.80;1.00;;;;;;5053749;28;20216;-86
2024/03/23 11:18:20;;;;;;;17.03;3.00;;;10.90;1.00;;;;;;5053541;28;20193;-86
2024/03/23 11:20:46;;;;;;;15.80;1.73;;;10.80;1.00;;;;;;5052093;28;20538;-86
2024/03/23 11:23:32;;;;;;;19.53;1.93;;;10.60;1.00;;;;;;5053419;28;20192;-86
2024/03/23 11:25:58;;;;;;;20.48;1.85;;;10.40;1.00;;;;;;5053762;28;20172;-86
2024/03/23 11:28:24;;;;;;;15.50;2.90;;;10.40;1.00;;;;;;5052920;28;20169;-87
2024/03/23 11:30:49;;;;;;;15.10;2.50;;;10.20;1.00;;;;;;5052150;28;20195;-87
2024/03/23 11:33:16;;;;;;;15.13;1.97;;;10.00;1.00;;;;;;5051817;28;20650;-87
2024/03/23 11:35:41;;;;;;;18.17;1.35;;;9.90;1.00;;;;;;5051917;28;20169;-87
2024/03/23 11:38:15;;;;;;;13.17;1.33;;;9.80;1.00;;;;;;5051637;28;20189;-88
2024/03/23 11:40:45;;;;;;;15.38;1.25;;;9.60;1.00;;;;;;5052495;28;20407;-87
2024/03/23 11:43:13;;;;;;;14.13;1.40;;;9.50;1.00;;;;;;5052979;28;20165;-87
2024/03/23 11:45:44;;;;;;;15.98;1.60;;;9.40;1.00;;;;;;5052922;28;20189;-87
2024/03/23 11:48:13;;;;;;;14.07;1.23;;;9.50;1.00;;;;;;5053307;28;20553;-87
2024/03/23 11:50:44;;;;;;;16.90;1.88;;;9.50;1.00;;;;;;5053074;28;20169;-86
2024/03/23 11:53:16;;;;;;;14.02;1.40;;;10.00;1.00;;;;;;5052858;28;20184;-85
2024/03/23 11:56:12;;;;;;;17.17;1.63;;;10.40;1.00;;;;;;5052904;28;20187;-87
2024/03/23 11:58:38;;;;;;;16.65;1.42;;;10.50;1.00;;;;;;5048140;28;20220;-84
2024/03/23 12:01:05;;;;;;;14.18;1.10;;;10.30;1.00;;;;;;5053509;28;20204;-85
2024/03/23 12:03:33;;;;;;;13.00;1.00;;;9.80;1.00;;;;;;5051712;28;20173;-87
2024/03/23 12:06:01;;;;;;;12.20;0.80;;;9.50;1.00;;;;;;5053277;28;20577;-86
2024/03/23 12:08:35;;;;;;;13.40;1.25;;;9.40;1.00;;;;;;5051943;28;20169;-87
2024/03/23 12:11:15;;;;;;;13.68;1.13;;;9.70;1.00;;;;;;5053006;28;20188;-87
2024/03/23 12:13:43;;;;;;;22.05;2.45;;;10.10;1.00;;;;;;5053147;28;20590;-86
2024/03/23 12:16:17;;;;;;;16.52;1.42;;;10.40;1.00;;;;;;5052050;28;20287;-87
2024/03/23 12:18:50;;;;;;;15.25;1.65;;;10.50;1.00;;;;;;5053825;28;20185;-88
2024/03/23 12:21:17;;;;;;;16.25;2.28;;;10.30;1.00;;;;;;5058030;28;20247;-86
2024/03/23 12:23:44;;;;;;;15.60;1.92;;;10.00;1.00;;;;;;5058510;28;20180;-86
2024/03/23 12:26:13;;;;;;;13.75;1.52;;;9.70;1.00;;;;;;5059848;28;20165;-86
2024/03/23 12:28:39;;;;;;;14.07;1.40;;;9.30;1.00;;;;;;5060554;28;20538;-86
2024/03/23 12:31:08;;;;;;;12.35;1.10;;;8.80;1.00;;;;;;5061138;28;20227;-86
2024/03/23 12:33:33;;;;;;;12.90;1.13;;;8.30;1.00;;;;;;5060778;28;20173;-87
2024/03/23 12:35:59;;;;;;;12.33;1.00;;;8.10;1.00;;;;;;5059450;28;20697;-87
2024/03/23 12:38:25;;;;;;;12.33;0.80;;;7.90;1.00;;;;;;5058835;28;20335;-86
2024/03/23 12:40:50;;;;;;;12.63;1.07;;;7.70;1.00;;;;;;5058601;28;20221;-87
2024/03/23 12:43:17;;;;;;;12.60;0.90;;;7.50;13.80;;;;;;5058052;28;20267;-87
2024/03/23 12:45:49;;;;;;;12.15;0.80;;;7.50;5.60;;;;;;5059000;28;20172;-87
2024/03/23 12:48:15;;;;;;;13.82;1.00;;;7.80;18.80;;;;;;5057408;28;20266;-87
2024/03/23 12:50:41;;;;;;;13.60;0.97;;;8.00;20.30;;;;;;5056179;28;20673;-86